sensor_id;sensor_type;location;lat;lon;timestamp;temperature;humidity
41318;DHT22;27067;51.554;7.026;2023-04-28T00:01:09;15.10;94.20
41318;DHT22;27067;51.554;7.026;2023-04-28T00:03:35;15.10;94.20
41318;DHT22;27067;51.554;7.026;2023-04-28T00:06:01;15.10;94.30
41318;DHT22;27067;51.554;7.026;2023-04-28T00:08:26;15.20;94.30
41318;DHT22;27067;51.554;7.026;2023-04-28T00:10:52;15.20;94.30
41318;DHT22;27067;51.554;7.026;2023-04-28T00:13:18;15.20;94.20
41318;DHT22;27067;51.554;7.026;2023-04-28T00:15:43;15.10;94.20
41318;DHT22;27067;51.554;7.026;2023-04-28T00:18:09;15.20;94.20
41318;DHT22;27067;51.554;7.026;2023-04-28T00:20:34;15.20;94.20
41318;DHT22;27067;51.554;7.026;2023-04-28T00:23:00;15.10;94.20
41318;DHT22;27067;51.554;7.026;2023-04-28T00:25:26;15.20;94.20
41318;DHT22;27067;51.554;7.026;2023-04-28T00:27:51;15.10;94.10
41318;DHT22;27067;51.554;7.026;2023-04-28T00:30:17;15.10;94.20
41318;DHT22;27067;51.554;7.026;2023-04-28T00:32:42;15.20;94.30
41318;DHT22;27067;51.554;7.026;2023-04-28T00:35:08;15.20;94.40
41318;DHT22;27067;51.554;7.026;2023-04-28T00:37:37;15.20;94.40
41318;DHT22;27067;51.554;7.026;2023-04-28T00:40:03;15.10;94.30
41318;DHT22;27067;51.554;7.026;2023-04-28T00:42:29;15.10;94.30
41318;DHT22;27067;51.554;7.026;2023-04-28T00:44:56;15.20;94.30
41318;DHT22;27067;51.554;7.026;2023-04-28T00:47:22;15.20;94.60
41318;DHT22;27067;51.554;7.026;2023-04-28T00:49:48;15.20;94.30
41318;DHT22;27067;51.554;7.026;2023-04-28T00:52:14;15.20;94.20
41318;DHT22;27067;51.554;7.026;2023-04-28T00:54:40;15.20;94.20
41318;DHT22;27067;51.554;7.026;2023-04-28T00:57:08;15.20;94.20
41318;DHT22;27067;51.554;7.026;2023-04-28T00:59:34;15.20;94.20
41318;DHT22;27067;51.554;7.026;2023-04-28T01:02:00;15.20;94.20
41318;DHT22;27067;51.554;7.026;2023-04-28T01:04:28;15.20;94.20
41318;DHT22;27067;51.554;7.026;2023-04-28T01:06:54;15.20;94.20
41318;DHT22;27067;51.554;7.026;2023-04-28T01:09:21;15.20;94.20
41318;DHT22;27067;51.554;7.026;2023-04-28T01:11:46;15.10;94.20
41318;DHT22;27067;51.554;7.026;2023-04-28T01:14:12;15.20;94.20
41318;DHT22;27067;51.554;7.026;2023-04-28T01:16:38;15.20;94.20
41318;DHT22;27067;51.554;7.026;2023-04-28T01:19:15;15.20;94.20
41318;DHT22;27067;51.554;7.026;2023-04-28T01:21:42;15.20;94.20
41318;DHT22;27067;51.554;7.026;2023-04-28T01:24:07;15.20;94.20
41318;DHT22;27067;51.554;7.026;2023-04-28T01:26:33;15.20;94.20
41318;DHT22;27067;51.554;7.026;2023-04-28T01:29:01;15.20;94.20
41318;DHT22;27067;51.554;7.026;2023-04-28T01:31:27;15.20;94.20
41318;DHT22;27067;51.554;7.026;2023-04-28T01:33:52;15.20;94.20
41318;DHT22;27067;51.554;7.026;2023-04-28T01:36:18;15.20;94.30
41318;DHT22;27067;51.554;7.026;2023-04-28T01:38:43;15.20;94.30
41318;DHT22;27067;51.554;7.026;2023-04-28T01:41:09;15.20;94.40
41318;DHT22;27067;51.554;7.026;2023-04-28T01:43:34;15.20;94.40
41318;DHT22;27067;51.554;7.026;2023-04-28T01:46:00;15.20;94.50
41318;DHT22;27067;51.554;7.026;2023-04-28T01:48:26;15.20;94.50
41318;DHT22;27067;51.554;7.026;2023-04-28T01:50:51;15.20;94.50
41318;DHT22;27067;51.554;7.026;2023-04-28T01:53:17;15.10;94.50
41318;DHT22;27067;51.554;7.026;2023-04-28T01:55:45;15.20;94.50
41318;DHT22;27067;51.554;7.026;2023-04-28T01:58:11;15.20;94.50
41318;DHT22;27067;51.554;7.026;2023-04-28T02:00:37;15.20;94.60
41318;DHT22;27067;51.554;7.026;2023-04-28T02:03:02;15.20;94.60
41318;DHT22;27067;51.554;7.026;2023-04-28T02:05:28;15.20;94.60
41318;DHT22;27067;51.554;7.026;2023-04-28T02:07:53;15.10;94.60
41318;DHT22;27067;51.554;7.026;2023-04-28T02:10:19;15.20;94.60
41318;DHT22;27067;51.554;7.026;2023-04-28T02:12:45;15.20;94.60
41318;DHT22;27067;51.554;7.026;2023-04-28T02:15:11;15.20;94.60
41318;DHT22;27067;51.554;7.026;2023-04-28T02:17:36;15.20;94.60
41318;DHT22;27067;51.554;7.026;2023-04-28T02:20:02;15.20;94.60
41318;DHT22;27067;51.554;7.026;2023-04-28T02:22:29;15.20;94.50
41318;DHT22;27067;51.554;7.026;2023-04-28T02:24:55;15.20;94.50
41318;DHT22;27067;51.554;7.026;2023-04-28T02:27:21;15.20;94.50
41318;DHT22;27067;51.554;7.026;2023-04-28T02:29:47;15.20;94.50
41318;DHT22;27067;51.554;7.026;2023-04-28T02:32:13;15.20;94.50
41318;DHT22;27067;51.554;7.026;2023-04-28T02:34:38;15.20;94.60
41318;DHT22;27067;51.554;7.026;2023-04-28T02:37:04;15.20;94.60
41318;DHT22;27067;51.554;7.026;2023-04-28T02:39:30;15.30;94.70
41318;DHT22;27067;51.554;7.026;2023-04-28T02:41:57;15.20;94.90
41318;DHT22;27067;51.554;7.026;2023-04-28T02:44:23;15.20;94.70
41318;DHT22;27067;51.554;7.026;2023-04-28T02:46:49;15.20;94.70
41318;DHT22;27067;51.554;7.026;2023-04-28T02:49:15;15.20;94.70
41318;DHT22;27067;51.554;7.026;2023-04-28T02:51:40;15.20;94.60
41318;DHT22;27067;51.554;7.026;2023-04-28T02:54:06;15.20;94.60
41318;DHT22;27067;51.554;7.026;2023-04-28T02:56:32;15.20;94.60
41318;DHT22;27067;51.554;7.026;2023-04-28T02:58:58;15.20;94.60
41318;DHT22;27067;51.554;7.026;2023-04-28T03:01:24;15.20;94.70
41318;DHT22;27067;51.554;7.026;2023-04-28T03:03:50;15.20;94.70
41318;DHT22;27067;51.554;7.026;2023-04-28T03:06:15;15.20;94.60
41318;DHT22;27067;51.554;7.026;2023-04-28T03:08:41;15.20;94.70
41318;DHT22;27067;51.554;7.026;2023-04-28T03:11:07;15.20;94.70
41318;DHT22;27067;51.554;7.026;2023-04-28T03:13:32;15.20;94.70
41318;DHT22;27067;51.554;7.026;2023-04-28T03:15:58;15.20;94.70
41318;DHT22;27067;51.554;7.026;2023-04-28T03:18:23;15.30;94.70
41318;DHT22;27067;51.554;7.026;2023-04-28T03:20:49;15.30;94.70
41318;DHT22;27067;51.554;7.026;2023-04-28T03:23:15;15.30;94.70
41318;DHT22;27067;51.554;7.026;2023-04-28T03:25:41;15.20;94.60
41318;DHT22;27067;51.554;7.026;2023-04-28T03:28:06;15.20;94.60
41318;DHT22;27067;51.554;7.026;2023-04-28T03:30:32;15.30;94.70
41318;DHT22;27067;51.554;7.026;2023-04-28T03:32:58;15.30;94.70
41318;DHT22;27067;51.554;7.026;2023-04-28T03:35:24;15.20;94.80
41318;DHT22;27067;51.554;7.026;2023-04-28T03:37:49;15.20;94.80
41318;DHT22;27067;51.554;7.026;2023-04-28T03:40:15;15.20;94.80
41318;DHT22;27067;51.554;7.026;2023-04-28T03:42:41;15.30;94.80
41318;DHT22;27067;51.554;7.026;2023-04-28T03:45:07;15.30;94.80
41318;DHT22;27067;51.554;7.026;2023-04-28T03:47:33;15.20;94.80
41318;DHT22;27067;51.554;7.026;2023-04-28T03:49:59;15.20;94.90
41318;DHT22;27067;51.554;7.026;2023-04-28T03:52:25;15.30;94.90
41318;DHT22;27067;51.554;7.026;2023-04-28T03:54:51;15.20;94.90
41318;DHT22;27067;51.554;7.026;2023-04-28T03:57:17;15.20;95.00
41318;DHT22;27067;51.554;7.026;2023-04-28T03:59:43;15.30;95.10
41318;DHT22;27067;51.554;7.026;2023-04-28T04:02:08;15.30;95.10
41318;DHT22;27067;51.554;7.026;2023-04-28T04:04:34;15.30;95.10
41318;DHT22;27067;51.554;7.026;2023-04-28T04:07:00;15.30;95.20
41318;DHT22;27067;51.554;7.026;2023-04-28T04:09:26;15.30;95.20
41318;DHT22;27067;51.554;7.026;2023-04-28T04:11:52;15.30;95.20
41318;DHT22;27067;51.554;7.026;2023-04-28T04:14:18;15.30;95.30
41318;DHT22;27067;51.554;7.026;2023-04-28T04:16:45;15.30;95.40
41318;DHT22;27067;51.554;7.026;2023-04-28T04:19:12;15.30;95.40
41318;DHT22;27067;51.554;7.026;2023-04-28T04:21:37;15.30;95.50
41318;DHT22;27067;51.554;7.026;2023-04-28T04:24:03;15.30;95.50
41318;DHT22;27067;51.554;7.026;2023-04-28T04:26:29;15.40;95.50
41318;DHT22;27067;51.554;7.026;2023-04-28T04:28:55;15.60;95.50
41318;DHT22;27067;51.554;7.026;2023-04-28T04:31:20;15.40;95.40
41318;DHT22;27067;51.554;7.026;2023-04-28T04:33:47;15.50;95.30
41318;DHT22;27067;51.554;7.026;2023-04-28T04:36:13;15.50;95.50
41318;DHT22;27067;51.554;7.026;2023-04-28T04:38:38;15.60;95.10
41318;DHT22;27067;51.554;7.026;2023-04-28T04:41:04;15.60;95.10
41318;DHT22;27067;51.554;7.026;2023-04-28T04:43:30;15.60;95.00
41318;DHT22;27067;51.554;7.026;2023-04-28T04:45:56;15.70;95.00
41318;DHT22;27067;51.554;7.026;2023-04-28T04:48:21;15.70;94.90
41318;DHT22;27067;51.554;7.026;2023-04-28T04:50:47;15.70;94.90
41318;DHT22;27067;51.554;7.026;2023-04-28T04:53:13;15.70;94.90
41318;DHT22;27067;51.554;7.026;2023-04-28T04:55:39;15.70;94.90
41318;DHT22;27067;51.554;7.026;2023-04-28T04:58:05;15.70;95.20
41318;DHT22;27067;51.554;7.026;2023-04-28T05:00:31;15.70;95.40
41318;DHT22;27067;51.554;7.026;2023-04-28T05:02:57;15.70;95.50
41318;DHT22;27067;51.554;7.026;2023-04-28T05:05:23;15.60;95.60
41318;DHT22;27067;51.554;7.026;2023-04-28T05:07:49;15.60;96.00
41318;DHT22;27067;51.554;7.026;2023-04-28T05:10:15;15.70;95.80
41318;DHT22;27067;51.554;7.026;2023-04-28T05:12:41;15.60;95.80
41318;DHT22;27067;51.554;7.026;2023-04-28T05:15:08;15.60;95.80
41318;DHT22;27067;51.554;7.026;2023-04-28T05:17:35;15.60;95.80
41318;DHT22;27067;51.554;7.026;2023-04-28T05:20:02;15.60;95.90
41318;DHT22;27067;51.554;7.026;2023-04-28T05:22:28;15.60;95.90
41318;DHT22;27067;51.554;7.026;2023-04-28T05:24:55;15.60;95.90
41318;DHT22;27067;51.554;7.026;2023-04-28T05:27:21;15.60;95.90
41318;DHT22;27067;51.554;7.026;2023-04-28T05:29:46;15.60;95.90
41318;DHT22;27067;51.554;7.026;2023-04-28T05:32:12;15.60;95.90
41318;DHT22;27067;51.554;7.026;2023-04-28T05:34:38;15.60;95.80
41318;DHT22;27067;51.554;7.026;2023-04-28T05:37:03;15.60;95.80
41318;DHT22;27067;51.554;7.026;2023-04-28T05:39:29;15.60;95.80
41318;DHT22;27067;51.554;7.026;2023-04-28T05:41:55;15.60;95.80
41318;DHT22;27067;51.554;7.026;2023-04-28T05:44:20;15.50;95.70
41318;DHT22;27067;51.554;7.026;2023-04-28T05:46:46;15.50;95.70
41318;DHT22;27067;51.554;7.026;2023-04-28T05:49:12;15.50;95.80
41318;DHT22;27067;51.554;7.026;2023-04-28T05:51:37;15.50;95.90
41318;DHT22;27067;51.554;7.026;2023-04-28T05:54:03;15.60;96.00
41318;DHT22;27067;51.554;7.026;2023-04-28T05:56:29;15.60;96.00
41318;DHT22;27067;51.554;7.026;2023-04-28T05:58:55;15.60;95.90
41318;DHT22;27067;51.554;7.026;2023-04-28T06:01:21;15.60;95.90
41318;DHT22;27067;51.554;7.026;2023-04-28T06:03:47;15.70;95.80
41318;DHT22;27067;51.554;7.026;2023-04-28T06:06:13;15.70;95.70
41318;DHT22;27067;51.554;7.026;2023-04-28T06:08:39;15.70;95.60
41318;DHT22;27067;51.554;7.026;2023-04-28T06:11:05;15.80;95.60
41318;DHT22;27067;51.554;7.026;2023-04-28T06:13:31;15.80;95.70
41318;DHT22;27067;51.554;7.026;2023-04-28T06:15:57;15.80;96.30
41318;DHT22;27067;51.554;7.026;2023-04-28T06:18:23;15.80;97.30
41318;DHT22;27067;51.554;7.026;2023-04-28T06:20:49;15.90;98.00
41318;DHT22;27067;51.554;7.026;2023-04-28T06:23:15;15.90;98.40
41318;DHT22;27067;51.554;7.026;2023-04-28T06:25:40;15.90;98.60
41318;DHT22;27067;51.554;7.026;2023-04-28T06:28:06;15.80;98.60
41318;DHT22;27067;51.554;7.026;2023-04-28T06:30:32;15.80;98.50
41318;DHT22;27067;51.554;7.026;2023-04-28T06:32:59;15.80;98.40
41318;DHT22;27067;51.554;7.026;2023-04-28T06:35:25;15.80;98.30
41318;DHT22;27067;51.554;7.026;2023-04-28T06:37:51;15.80;98.30
41318;DHT22;27067;51.554;7.026;2023-04-28T06:40:16;15.80;98.20
41318;DHT22;27067;51.554;7.026;2023-04-28T06:42:42;15.80;98.10
41318;DHT22;27067;51.554;7.026;2023-04-28T06:45:08;15.80;98.10
41318;DHT22;27067;51.554;7.026;2023-04-28T06:47:34;15.70;97.90
41318;DHT22;27067;51.554;7.026;2023-04-28T06:50:01;15.70;97.90
41318;DHT22;27067;51.554;7.026;2023-04-28T06:52:27;15.70;97.80
41318;DHT22;27067;51.554;7.026;2023-04-28T06:54:55;15.70;97.70
41318;DHT22;27067;51.554;7.026;2023-04-28T06:57:21;15.70;97.70
41318;DHT22;27067;51.554;7.026;2023-04-28T06:59:46;15.70;97.60
41318;DHT22;27067;51.554;7.026;2023-04-28T07:02:12;15.70;97.50
41318;DHT22;27067;51.554;7.026;2023-04-28T07:04:38;15.70;97.50
41318;DHT22;27067;51.554;7.026;2023-04-28T07:07:04;15.70;97.50
41318;DHT22;27067;51.554;7.026;2023-04-28T07:09:33;15.70;97.40
41318;DHT22;27067;51.554;7.026;2023-04-28T07:11:59;15.70;97.40
41318;DHT22;27067;51.554;7.026;2023-04-28T07:14:25;15.70;97.40
41318;DHT22;27067;51.554;7.026;2023-04-28T07:16:50;15.70;97.40
41318;DHT22;27067;51.554;7.026;2023-04-28T07:19:16;15.70;97.40
41318;DHT22;27067;51.554;7.026;2023-04-28T07:21:42;15.70;97.40
41318;DHT22;27067;51.554;7.026;2023-04-28T07:24:07;15.70;97.40
41318;DHT22;27067;51.554;7.026;2023-04-28T07:26:33;15.70;97.30
41318;DHT22;27067;51.554;7.026;2023-04-28T07:28:59;15.70;97.40
41318;DHT22;27067;51.554;7.026;2023-04-28T07:31:25;15.70;97.30
41318;DHT22;27067;51.554;7.026;2023-04-28T07:33:51;15.70;97.30
41318;DHT22;27067;51.554;7.026;2023-04-28T07:36:16;15.70;97.30
41318;DHT22;27067;51.554;7.026;2023-04-28T07:38:42;15.70;97.20
41318;DHT22;27067;51.554;7.026;2023-04-28T07:41:08;15.70;97.20
41318;DHT22;27067;51.554;7.026;2023-04-28T07:43:33;15.70;97.20
41318;DHT22;27067;51.554;7.026;2023-04-28T07:46:00;15.70;97.20
41318;DHT22;27067;51.554;7.026;2023-04-28T07:48:25;15.70;97.20
41318;DHT22;27067;51.554;7.026;2023-04-28T07:50:52;15.70;97.20
41318;DHT22;27067;51.554;7.026;2023-04-28T07:53:18;15.60;97.20
41318;DHT22;27067;51.554;7.026;2023-04-28T07:55:43;15.70;97.20
41318;DHT22;27067;51.554;7.026;2023-04-28T07:58:10;15.60;97.20
41318;DHT22;27067;51.554;7.026;2023-04-28T08:00:37;15.60;97.30
41318;DHT22;27067;51.554;7.026;2023-04-28T08:03:02;15.70;97.30
41318;DHT22;27067;51.554;7.026;2023-04-28T08:05:28;15.70;97.30
41318;DHT22;27067;51.554;7.026;2023-04-28T08:07:54;15.60;97.30
41318;DHT22;27067;51.554;7.026;2023-04-28T08:10:20;15.70;97.30
41318;DHT22;27067;51.554;7.026;2023-04-28T08:12:45;15.60;97.30
41318;DHT22;27067;51.554;7.026;2023-04-28T08:15:12;15.70;97.40
41318;DHT22;27067;51.554;7.026;2023-04-28T08:17:37;15.70;97.40
41318;DHT22;27067;51.554;7.026;2023-04-28T08:20:04;15.70;97.70
41318;DHT22;27067;51.554;7.026;2023-04-28T08:22:31;15.70;97.40
41318;DHT22;27067;51.554;7.026;2023-04-28T08:24:57;15.60;97.40
41318;DHT22;27067;51.554;7.026;2023-04-28T08:27:22;15.60;97.40
41318;DHT22;27067;51.554;7.026;2023-04-28T08:29:50;15.60;97.40
41318;DHT22;27067;51.554;7.026;2023-04-28T08:32:16;15.60;97.40
41318;DHT22;27067;51.554;7.026;2023-04-28T08:34:42;15.70;97.50
41318;DHT22;27067;51.554;7.026;2023-04-28T08:37:08;15.60;97.50
41318;DHT22;27067;51.554;7.026;2023-04-28T08:39:33;15.60;97.50
41318;DHT22;27067;51.554;7.026;2023-04-28T08:42:02;15.60;97.60
41318;DHT22;27067;51.554;7.026;2023-04-28T08:44:36;15.60;97.60
41318;DHT22;27067;51.554;7.026;2023-04-28T08:47:12;15.60;97.70
41318;DHT22;27067;51.554;7.026;2023-04-28T08:49:39;15.60;97.70
41318;DHT22;27067;51.554;7.026;2023-04-28T08:52:16;15.60;97.70
41318;DHT22;27067;51.554;7.026;2023-04-28T08:54:43;15.60;97.70
41318;DHT22;27067;51.554;7.026;2023-04-28T08:57:09;15.60;97.80
41318;DHT22;27067;51.554;7.026;2023-04-28T08:59:39;15.60;97.80
41318;DHT22;27067;51.554;7.026;2023-04-28T09:02:07;15.60;97.90
41318;DHT22;27067;51.554;7.026;2023-04-28T09:04:33;15.60;97.90
41318;DHT22;27067;51.554;7.026;2023-04-28T09:06:59;15.60;98.00
41318;DHT22;27067;51.554;7.026;2023-04-28T09:09:29;15.60;98.10
41318;DHT22;27067;51.554;7.026;2023-04-28T09:11:59;15.60;98.10
41318;DHT22;27067;51.554;7.026;2023-04-28T09:14:30;15.60;98.10
41318;DHT22;27067;51.554;7.026;2023-04-28T09:16:57;15.60;98.10
41318;DHT22;27067;51.554;7.026;2023-04-28T09:19:31;15.60;98.20
41318;DHT22;27067;51.554;7.026;2023-04-28T09:22:01;15.60;98.20
41318;DHT22;27067;51.554;7.026;2023-04-28T09:27:02;15.60;98.40
41318;DHT22;27067;51.554;7.026;2023-04-28T09:29:32;15.60;98.50
41318;DHT22;27067;51.554;7.026;2023-04-28T09:32:17;15.60;98.50
41318;DHT22;27067;51.554;7.026;2023-04-28T09:37:20;15.60;98.80
41318;DHT22;27067;51.554;7.026;2023-04-28T09:39:48;15.60;98.60
41318;DHT22;27067;51.554;7.026;2023-04-28T09:42:34;15.60;98.70
41318;DHT22;27067;51.554;7.026;2023-04-28T09:45:01;15.60;98.70
41318;DHT22;27067;51.554;7.026;2023-04-28T09:47:28;15.60;98.80
41318;DHT22;27067;51.554;7.026;2023-04-28T09:49:57;15.60;98.90
41318;DHT22;27067;51.554;7.026;2023-04-28T09:52:24;15.60;98.90
41318;DHT22;27067;51.554;7.026;2023-04-28T09:54:52;15.60;99.00
41318;DHT22;27067;51.554;7.026;2023-04-28T09:57:18;15.60;99.00
41318;DHT22;27067;51.554;7.026;2023-04-28T09:59:46;15.60;99.00
41318;DHT22;27067;51.554;7.026;2023-04-28T10:02:14;15.60;99.00
41318;DHT22;27067;51.554;7.026;2023-04-28T10:04:43;15.60;99.00
41318;DHT22;27067;51.554;7.026;2023-04-28T10:07:11;15.60;99.00
41318;DHT22;27067;51.554;7.026;2023-04-28T10:09:39;15.60;99.00
41318;DHT22;27067;51.554;7.026;2023-04-28T10:12:20;15.60;99.00
41318;DHT22;27067;51.554;7.026;2023-04-28T10:14:47;15.60;98.90
41318;DHT22;27067;51.554;7.026;2023-04-28T10:17:22;15.60;99.00
41318;DHT22;27067;51.554;7.026;2023-04-28T10:19:52;15.60;99.00
41318;DHT22;27067;51.554;7.026;2023-04-28T10:25:23;15.60;98.90
41318;DHT22;27067;51.554;7.026;2023-04-28T10:27:49;15.60;98.90
41318;DHT22;27067;51.554;7.026;2023-04-28T10:30:20;15.60;98.90
41318;DHT22;27067;51.554;7.026;2023-04-28T10:32:47;15.60;98.90
41318;DHT22;27067;51.554;7.026;2023-04-28T10:38:15;15.60;98.80
41318;DHT22;27067;51.554;7.026;2023-04-28T10:40:48;15.60;98.80
41318;DHT22;27067;51.554;7.026;2023-04-28T10:56:24;15.60;98.80
41318;DHT22;27067;51.554;7.026;2023-04-28T11:01:28;15.60;98.80
41318;DHT22;27067;51.554;7.026;2023-04-28T11:04:05;15.60;98.90
41318;DHT22;27067;51.554;7.026;2023-04-28T11:06:46;15.60;98.90
41318;DHT22;27067;51.554;7.026;2023-04-28T11:12:04;15.60;98.90
41318;DHT22;27067;51.554;7.026;2023-04-28T11:14:37;15.70;98.90
41318;DHT22;27067;51.554;7.026;2023-04-28T11:17:09;15.60;98.90
41318;DHT22;27067;51.554;7.026;2023-04-28T11:19:45;15.60;98.90
41318;DHT22;27067;51.554;7.026;2023-04-28T11:22:14;15.60;98.90
41318;DHT22;27067;51.554;7.026;2023-04-28T11:24:40;15.60;99.00
41318;DHT22;27067;51.554;7.026;2023-04-28T11:27:06;15.60;98.90
41318;DHT22;27067;51.554;7.026;2023-04-28T11:29:37;15.60;98.90
41318;DHT22;27067;51.554;7.026;2023-04-28T11:32:04;15.60;98.90
41318;DHT22;27067;51.554;7.026;2023-04-28T11:34:30;15.60;98.90
41318;DHT22;27067;51.554;7.026;2023-04-28T11:36:56;15.60;99.00
41318;DHT22;27067;51.554;7.026;2023-04-28T11:39:30;15.60;99.00
41318;DHT22;27067;51.554;7.026;2023-04-28T11:41:57;15.60;99.00
41318;DHT22;27067;51.554;7.026;2023-04-28T11:44:28;15.60;99.00
41318;DHT22;27067;51.554;7.026;2023-04-28T11:46:55;15.60;99.00
41318;DHT22;27067;51.554;7.026;2023-04-28T11:49:26;15.60;99.00
41318;DHT22;27067;51.554;7.026;2023-04-28T11:52:04;15.60;99.00
41318;DHT22;27067;51.554;7.026;2023-04-28T11:54:30;15.60;99.00
41318;DHT22;27067;51.554;7.026;2023-04-28T11:56:57;15.60;99.00
41318;DHT22;27067;51.554;7.026;2023-04-28T11:59:28;15.60;99.00
41318;DHT22;27067;51.554;7.026;2023-04-28T12:01:56;15.60;99.00
41318;DHT22;27067;51.554;7.026;2023-04-28T12:04:34;15.60;99.00
41318;DHT22;27067;51.554;7.026;2023-04-28T12:07:16;15.60;99.00
41318;DHT22;27067;51.554;7.026;2023-04-28T12:09:44;15.60;99.00
41318;DHT22;27067;51.554;7.026;2023-04-28T12:12:12;15.60;99.00
41318;DHT22;27067;51.554;7.026;2023-04-28T12:19:51;15.60;99.50
41318;DHT22;27067;51.554;7.026;2023-04-28T12:22:17;15.60;99.60
41318;DHT22;27067;51.554;7.026;2023-04-28T12:24:43;15.60;99.70
41318;DHT22;27067;51.554;7.026;2023-04-28T12:27:19;15.60;99.90
41318;DHT22;27067;51.554;7.026;2023-04-28T12:29:49;15.60;99.90
41318;DHT22;27067;51.554;7.026;2023-04-28T12:32:16;15.60;99.90
41318;DHT22;27067;51.554;7.026;2023-04-28T12:34:44;15.60;99.90
41318;DHT22;27067;51.554;7.026;2023-04-28T12:37:11;15.60;99.90
41318;DHT22;27067;51.554;7.026;2023-04-28T12:39:39;15.60;99.90
41318;DHT22;27067;51.554;7.026;2023-04-28T12:42:05;15.60;99.90
41318;DHT22;27067;51.554;7.026;2023-04-28T12:44:37;15.60;99.90
41318;DHT22;27067;51.554;7.026;2023-04-28T12:47:08;15.60;99.90
41318;DHT22;27067;51.554;7.026;2023-04-28T12:49:35;15.60;99.90
41318;DHT22;27067;51.554;7.026;2023-04-28T12:52:01;15.60;99.90
41318;DHT22;27067;51.554;7.026;2023-04-28T12:54:26;15.60;99.90
41318;DHT22;27067;51.554;7.026;2023-04-28T12:56:52;15.60;99.90
41318;DHT22;27067;51.554;7.026;2023-04-28T12:59:21;15.70;99.90
41318;DHT22;27067;51.554;7.026;2023-04-28T13:01:47;15.70;99.90
41318;DHT22;27067;51.554;7.026;2023-04-28T13:04:13;15.60;99.90
41318;DHT22;27067;51.554;7.026;2023-04-28T13:06:39;15.70;99.90
41318;DHT22;27067;51.554;7.026;2023-04-28T13:09:11;15.60;99.90
41318;DHT22;27067;51.554;7.026;2023-04-28T13:11:37;15.70;99.90
41318;DHT22;27067;51.554;7.026;2023-04-28T13:14:03;15.70;99.90
41318;DHT22;27067;51.554;7.026;2023-04-28T13:16:29;15.70;99.90
41318;DHT22;27067;51.554;7.026;2023-04-28T13:18:55;15.70;99.90
41318;DHT22;27067;51.554;7.026;2023-04-28T13:21:24;15.70;99.90
41318;DHT22;27067;51.554;7.026;2023-04-28T13:23:52;15.70;99.90
41318;DHT22;27067;51.554;7.026;2023-04-28T13:26:18;15.70;99.90
41318;DHT22;27067;51.554;7.026;2023-04-28T13:28:46;15.70;99.90
41318;DHT22;27067;51.554;7.026;2023-04-28T13:31:13;15.70;99.90
41318;DHT22;27067;51.554;7.026;2023-04-28T13:33:38;15.60;99.90
41318;DHT22;27067;51.554;7.026;2023-04-28T13:36:04;15.70;99.90
41318;DHT22;27067;51.554;7.026;2023-04-28T13:38:32;15.70;99.90
41318;DHT22;27067;51.554;7.026;2023-04-28T13:40:58;15.70;99.90
41318;DHT22;27067;51.554;7.026;2023-04-28T13:43:24;15.70;99.90
41318;DHT22;27067;51.554;7.026;2023-04-28T13:45:50;15.70;99.90
41318;DHT22;27067;51.554;7.026;2023-04-28T13:48:16;15.70;99.90
41318;DHT22;27067;51.554;7.026;2023-04-28T13:50:42;15.70;99.90
41318;DHT22;27067;51.554;7.026;2023-04-28T13:53:08;15.70;99.90
41318;DHT22;27067;51.554;7.026;2023-04-28T13:55:34;15.70;99.90
41318;DHT22;27067;51.554;7.026;2023-04-28T13:58:00;15.70;99.90
41318;DHT22;27067;51.554;7.026;2023-04-28T14:00:30;15.70;99.90
41318;DHT22;27067;51.554;7.026;2023-04-28T14:02:57;15.70;99.90
41318;DHT22;27067;51.554;7.026;2023-04-28T14:05:22;15.70;99.90
41318;DHT22;27067;51.554;7.026;2023-04-28T14:07:48;15.70;99.90
41318;DHT22;27067;51.554;7.026;2023-04-28T14:10:14;15.70;99.90
41318;DHT22;27067;51.554;7.026;2023-04-28T14:12:40;15.70;99.90
41318;DHT22;27067;51.554;7.026;2023-04-28T14:15:06;15.70;99.90
41318;DHT22;27067;51.554;7.026;2023-04-28T14:17:32;15.70;99.90
41318;DHT22;27067;51.554;7.026;2023-04-28T14:19:59;15.70;99.90
41318;DHT22;27067;51.554;7.026;2023-04-28T14:22:26;15.70;99.90
41318;DHT22;27067;51.554;7.026;2023-04-28T14:24:52;15.70;99.90
41318;DHT22;27067;51.554;7.026;2023-04-28T14:27:18;15.70;99.90
41318;DHT22;27067;51.554;7.026;2023-04-28T14:29:44;15.70;99.90
41318;DHT22;27067;51.554;7.026;2023-04-28T14:32:13;15.70;99.90
41318;DHT22;27067;51.554;7.026;2023-04-28T14:34:41;15.70;99.90
41318;DHT22;27067;51.554;7.026;2023-04-28T14:37:07;15.70;99.90
41318;DHT22;27067;51.554;7.026;2023-04-28T14:39:34;15.80;99.90
41318;DHT22;27067;51.554;7.026;2023-04-28T14:42:00;15.70;99.90
41318;DHT22;27067;51.554;7.026;2023-04-28T14:44:26;15.80;99.90
41318;DHT22;27067;51.554;7.026;2023-04-28T14:46:52;15.80;99.90
41318;DHT22;27067;51.554;7.026;2023-04-28T14:49:18;15.80;99.90
41318;DHT22;27067;51.554;7.026;2023-04-28T14:51:44;15.80;99.90
41318;DHT22;27067;51.554;7.026;2023-04-28T14:54:10;15.80;99.90
41318;DHT22;27067;51.554;7.026;2023-04-28T14:56:36;15.80;99.90
41318;DHT22;27067;51.554;7.026;2023-04-28T14:59:02;15.80;99.90
41318;DHT22;27067;51.554;7.026;2023-04-28T15:01:29;15.80;99.90
41318;DHT22;27067;51.554;7.026;2023-04-28T15:03:55;15.80;99.90
41318;DHT22;27067;51.554;7.026;2023-04-28T15:06:21;15.80;99.90
41318;DHT22;27067;51.554;7.026;2023-04-28T15:08:46;15.80;99.90
41318;DHT22;27067;51.554;7.026;2023-04-28T15:11:12;15.80;99.90
41318;DHT22;27067;51.554;7.026;2023-04-28T15:13:38;15.80;99.90
41318;DHT22;27067;51.554;7.026;2023-04-28T15:16:03;15.80;99.90
41318;DHT22;27067;51.554;7.026;2023-04-28T15:18:30;15.80;99.90
41318;DHT22;27067;51.554;7.026;2023-04-28T15:20:56;15.80;99.90
41318;DHT22;27067;51.554;7.026;2023-04-28T15:23:22;15.90;99.90
41318;DHT22;27067;51.554;7.026;2023-04-28T15:25:47;15.90;99.90
41318;DHT22;27067;51.554;7.026;2023-04-28T15:28:17;15.90;99.90
41318;DHT22;27067;51.554;7.026;2023-04-28T15:30:42;16.00;99.90
41318;DHT22;27067;51.554;7.026;2023-04-28T15:33:08;16.00;99.90
41318;DHT22;27067;51.554;7.026;2023-04-28T15:35:34;16.00;99.90
41318;DHT22;27067;51.554;7.026;2023-04-28T15:38:00;16.10;99.90
41318;DHT22;27067;51.554;7.026;2023-04-28T15:40:26;16.10;99.90
41318;DHT22;27067;51.554;7.026;2023-04-28T15:42:51;16.10;99.90
41318;DHT22;27067;51.554;7.026;2023-04-28T15:45:21;16.00;99.90
41318;DHT22;27067;51.554;7.026;2023-04-28T15:47:47;16.10;99.90
41318;DHT22;27067;51.554;7.026;2023-04-28T15:50:15;16.10;99.90
41318;DHT22;27067;51.554;7.026;2023-04-28T15:52:42;16.10;99.90
41318;DHT22;27067;51.554;7.026;2023-04-28T15:55:12;16.10;99.90
41318;DHT22;27067;51.554;7.026;2023-04-28T15:57:38;16.10;99.90
41318;DHT22;27067;51.554;7.026;2023-04-28T16:00:05;16.10;99.90
41318;DHT22;27067;51.554;7.026;2023-04-28T16:02:31;16.10;99.90